OVO0649 ZGGG-ZSPD
Flight info
| Callsign | OVO0649 |
|---|---|
| Flight time | 2h 3m |
| Altitude | 37100 |
| Route | BOVMA W41 OMDUP G471 PLT A599 ELNEX G204 SHZ W58 XSY |
| Aircraft | A339/H-SADE1E2E3GHIJ1J3J5M1P2RWXY/LB2D1 |
Departure
| Time | 2026-05-06 11:49 |
|---|---|
| Airport | Guangzhou Baiyun International Airport (ZGGG) |
Arrival
| Time | 2026-05-06 13:52 |
|---|---|
| Airport | Shanghai Pudong International Airport (ZSPD) |
| Time | Latitude | Longitude | Altitude | Speed | Heading |
|---|---|---|---|---|---|
| 2026-05-06 11:38 | 23.38482 | 113.29916 | 62 ft | 0 kts | 26° |
| 2026-05-06 11:41 | 23.38475 | 113.29911 | 62 ft | 2 kts | 26° |
| 2026-05-06 11:41 | 23.38462 | 113.29904 | 62 ft | 2 kts | 26° |
| 2026-05-06 11:41 | 23.38448 | 113.29897 | 62 ft | 2 kts | 26° |
| 2026-05-06 11:42 | 23.38434 | 113.29890 | 62 ft | 2 kts | 26° |
| 2026-05-06 11:42 | 23.38421 | 113.29883 | 62 ft | 2 kts | 26° |
| 2026-05-06 11:42 | 23.38407 | 113.29875 | 62 ft | 2 kts | 26° |
| 2026-05-06 11:42 | 23.38394 | 113.29868 | 62 ft | 2 kts | 26° |
| 2026-05-06 11:43 | 23.38380 | 113.29861 | 62 ft | 2 kts | 26° |
| 2026-05-06 11:43 | 23.38367 | 113.29853 | 62 ft | 2 kts | 43° |
| 2026-05-06 11:43 | 23.38362 | 113.29846 | 62 ft | 1 kts | 53° |
| 2026-05-06 11:44 | 23.38360 | 113.29845 | 62 ft | 0 kts | 53° |
| 2026-05-06 11:45 | 23.38362 | 113.29848 | 62 ft | 3 kts | 57° |
| 2026-05-06 11:45 | 23.38325 | 113.29937 | 62 ft | 21 kts | 141° |
| 2026-05-06 11:45 | 23.38210 | 113.30037 | 62 ft | 20 kts | 134° |
| 2026-05-06 11:45 | 23.38151 | 113.30173 | 62 ft | 19 kts | 106° |
| 2026-05-06 11:46 | 23.38115 | 113.30317 | 62 ft | 19 kts | 103° |
| 2026-05-06 11:46 | 23.38082 | 113.30443 | 62 ft | 12 kts | 127° |
| 2026-05-06 11:46 | 23.37999 | 113.30451 | 62 ft | 12 kts | 194° |
| 2026-05-06 11:46 | 23.37895 | 113.30422 | 63 ft | 18 kts | 194° |
| 2026-05-06 11:47 | 23.37749 | 113.30384 | 62 ft | 23 kts | 194° |
| 2026-05-06 11:47 | 23.37632 | 113.30376 | 62 ft | 13 kts | 143° |
| 2026-05-06 11:47 | 23.37595 | 113.30456 | 62 ft | 0 kts | 104° |
| 2026-05-06 11:48 | 23.37592 | 113.30471 | 63 ft | 6 kts | 103° |
| 2026-05-06 11:48 | 23.37617 | 113.30547 | 63 ft | 11 kts | 26° |
| 2026-05-06 11:48 | 23.37676 | 113.30563 | 63 ft | 23 kts | 14° |
| 2026-05-06 11:48 | 23.38107 | 113.30683 | 63 ft | 101 kts | 15° |
| 2026-05-06 11:49 | 23.39012 | 113.30927 | 63 ft | 164 kts | 13° |
| 2026-05-06 11:49 | 23.40286 | 113.31266 | 183 ft | 200 kts | 15° |
| 2026-05-06 11:49 | 23.41635 | 113.31630 | 790 ft | 199 kts | 17° |
| 2026-05-06 11:49 | 23.43002 | 113.32029 | 1236 ft | 212 kts | 18° |
| 2026-05-06 11:50 | 23.44485 | 113.32474 | 1637 ft | 230 kts | 18° |
| 2026-05-06 11:50 | 23.46089 | 113.32958 | 2092 ft | 246 kts | 18° |
| 2026-05-06 11:50 | 23.47767 | 113.33463 | 2777 ft | 251 kts | 17° |
| 2026-05-06 11:50 | 23.49452 | 113.33968 | 3518 ft | 253 kts | 17° |
| 2026-05-06 11:51 | 23.51139 | 113.34473 | 4205 ft | 256 kts | 16° |
| 2026-05-06 11:51 | 23.52885 | 113.34997 | 4898 ft | 259 kts | 15° |
| 2026-05-06 11:51 | 23.54613 | 113.35513 | 5558 ft | 262 kts | 14° |
| 2026-05-06 11:51 | 23.56404 | 113.35974 | 6226 ft | 264 kts | 9° |
| 2026-05-06 11:52 | 23.58205 | 113.36326 | 6872 ft | 266 kts | 8° |
| 2026-05-06 11:52 | 23.60047 | 113.36667 | 7509 ft | 267 kts | 7° |
| 2026-05-06 11:52 | 23.61831 | 113.37186 | 8089 ft | 272 kts | 27° |
| 2026-05-06 11:52 | 23.63251 | 113.38580 | 8633 ft | 280 kts | 57° |
| 2026-05-06 11:53 | 23.63949 | 113.40601 | 8942 ft | 294 kts | 77° |
| 2026-05-06 11:53 | 23.64373 | 113.42812 | 9298 ft | 306 kts | 78° |
| 2026-05-06 11:53 | 23.64803 | 113.45097 | 9835 ft | 310 kts | 77° |
| 2026-05-06 11:53 | 23.65258 | 113.47413 | 10345 ft | 315 kts | 77° |
| 2026-05-06 11:54 | 23.65751 | 113.49822 | 10614 ft | 330 kts | 77° |
| 2026-05-06 11:54 | 23.66271 | 113.52316 | 10903 ft | 344 kts | 76° |
| 2026-05-06 11:54 | 23.66807 | 113.54864 | 11394 ft | 349 kts | 76° |
| 2026-05-06 11:54 | 23.67347 | 113.57428 | 11983 ft | 351 kts | 76° |
| 2026-05-06 11:55 | 23.67898 | 113.60046 | 12567 ft | 353 kts | 76° |
| 2026-05-06 11:55 | 23.68444 | 113.62640 | 13103 ft | 356 kts | 76° |
| 2026-05-06 11:55 | 23.69001 | 113.65287 | 13644 ft | 359 kts | 76° |
| 2026-05-06 11:55 | 23.69562 | 113.67950 | 14162 ft | 363 kts | 77° |
| 2026-05-06 11:56 | 23.70133 | 113.70662 | 14674 ft | 366 kts | 77° |
| 2026-05-06 11:56 | 23.70701 | 113.73371 | 15172 ft | 370 kts | 77° |
| 2026-05-06 11:56 | 23.71273 | 113.76098 | 15664 ft | 373 kts | 77° |
| 2026-05-06 11:56 | 23.71852 | 113.78866 | 16153 ft | 377 kts | 77° |
| 2026-05-06 11:57 | 23.72439 | 113.81670 | 16650 ft | 380 kts | 77° |
| 2026-05-06 11:57 | 23.73029 | 113.84493 | 17142 ft | 383 kts | 77° |
| 2026-05-06 11:57 | 23.73620 | 113.87330 | 17602 ft | 386 kts | 77° |
| 2026-05-06 11:57 | 23.74212 | 113.90176 | 18082 ft | 389 kts | 77° |
| 2026-05-06 11:58 | 23.74816 | 113.93079 | 18582 ft | 392 kts | 77° |
| 2026-05-06 11:58 | 23.75423 | 113.96002 | 19084 ft | 394 kts | 77° |
| 2026-05-06 11:58 | 23.76029 | 113.98918 | 19571 ft | 397 kts | 77° |
| 2026-05-06 11:58 | 23.76640 | 114.01860 | 20040 ft | 400 kts | 77° |
| 2026-05-06 11:59 | 23.77248 | 114.04795 | 20509 ft | 402 kts | 77° |
| 2026-05-06 11:59 | 23.77867 | 114.07780 | 20970 ft | 404 kts | 77° |
| 2026-05-06 11:59 | 23.78486 | 114.10774 | 21417 ft | 407 kts | 77° |
| 2026-05-06 11:59 | 23.79114 | 114.13817 | 21862 ft | 409 kts | 77° |
| 2026-05-06 12:00 | 23.79742 | 114.16858 | 22307 ft | 412 kts | 77° |
| 2026-05-06 12:00 | 23.80370 | 114.19908 | 22754 ft | 414 kts | 77° |
| 2026-05-06 12:00 | 23.81000 | 114.22948 | 23172 ft | 416 kts | 75° |
| 2026-05-06 12:00 | 23.82065 | 114.25877 | 23511 ft | 417 kts | 55° |
| 2026-05-06 12:01 | 23.84033 | 114.28233 | 23920 ft | 414 kts | 34° |
| 2026-05-06 12:01 | 23.86554 | 114.29697 | 24331 ft | 409 kts | 14° |
| 2026-05-06 12:01 | 23.89303 | 114.30505 | 24758 ft | 409 kts | 11° |
| 2026-05-06 12:01 | 23.92047 | 114.31265 | 25153 ft | 412 kts | 11° |
| 2026-05-06 12:02 | 23.94828 | 114.32046 | 25564 ft | 414 kts | 11° |
| 2026-05-06 12:02 | 23.97650 | 114.32851 | 25992 ft | 415 kts | 11° |
| 2026-05-06 12:02 | 24.00428 | 114.33654 | 26401 ft | 417 kts | 11° |
| 2026-05-06 12:02 | 24.03251 | 114.34476 | 26804 ft | 418 kts | 11° |
| 2026-05-06 12:03 | 24.06061 | 114.35297 | 27188 ft | 420 kts | 11° |
| 2026-05-06 12:03 | 24.08876 | 114.36124 | 27563 ft | 422 kts | 11° |
| 2026-05-06 12:03 | 24.11752 | 114.36969 | 27945 ft | 423 kts | 11° |
| 2026-05-06 12:03 | 24.14602 | 114.37807 | 28320 ft | 425 kts | 11° |
| 2026-05-06 12:04 | 24.17457 | 114.38648 | 28686 ft | 426 kts | 11° |
| 2026-05-06 12:04 | 24.20344 | 114.39499 | 29051 ft | 428 kts | 11° |
| 2026-05-06 12:04 | 24.23237 | 114.40352 | 29396 ft | 430 kts | 11° |
| 2026-05-06 12:04 | 24.26133 | 114.41206 | 29730 ft | 432 kts | 11° |
| 2026-05-06 12:05 | 24.29059 | 114.42069 | 30064 ft | 434 kts | 11° |
| 2026-05-06 12:05 | 24.31984 | 114.42933 | 30381 ft | 437 kts | 11° |
| 2026-05-06 12:05 | 24.34929 | 114.43803 | 30700 ft | 439 kts | 11° |
| 2026-05-06 12:05 | 24.37855 | 114.44669 | 31006 ft | 441 kts | 11° |
| 2026-05-06 12:06 | 24.40852 | 114.45555 | 31318 ft | 443 kts | 11° |
| 2026-05-06 12:06 | 24.43832 | 114.46436 | 31613 ft | 446 kts | 11° |
| 2026-05-06 12:06 | 24.46852 | 114.47330 | 31923 ft | 447 kts | 11° |
| 2026-05-06 12:06 | 24.49855 | 114.48220 | 32235 ft | 449 kts | 11° |
| 2026-05-06 12:07 | 24.52863 | 114.49111 | 32548 ft | 450 kts | 11° |
| 2026-05-06 12:07 | 24.55890 | 114.50009 | 32841 ft | 452 kts | 11° |
| 2026-05-06 12:07 | 24.58918 | 114.50907 | 33141 ft | 453 kts | 11° |
| 2026-05-06 12:07 | 24.61986 | 114.51818 | 33425 ft | 455 kts | 11° |
| 2026-05-06 12:08 | 24.65070 | 114.52735 | 33692 ft | 457 kts | 11° |
| 2026-05-06 12:08 | 24.68123 | 114.53643 | 33963 ft | 459 kts | 11° |
| 2026-05-06 12:08 | 24.71212 | 114.54562 | 34294 ft | 459 kts | 10° |
| 2026-05-06 12:08 | 24.74300 | 114.55481 | 34687 ft | 458 kts | 10° |
| 2026-05-06 12:09 | 24.77381 | 114.56399 | 35099 ft | 456 kts | 10° |
| 2026-05-06 12:09 | 24.80442 | 114.57312 | 35460 ft | 455 kts | 10° |
| 2026-05-06 12:09 | 24.83514 | 114.58227 | 35732 ft | 456 kts | 10° |
| 2026-05-06 12:09 | 24.86572 | 114.59139 | 35951 ft | 458 kts | 10° |
| 2026-05-06 12:10 | 24.89638 | 114.60050 | 36155 ft | 460 kts | 10° |
| 2026-05-06 12:10 | 24.92732 | 114.60973 | 36376 ft | 461 kts | 10° |
| 2026-05-06 12:10 | 24.95850 | 114.61904 | 36604 ft | 462 kts | 10° |
| 2026-05-06 12:10 | 24.98970 | 114.62836 | 36841 ft | 463 kts | 9° |
| 2026-05-06 12:11 | 25.02066 | 114.63761 | 37037 ft | 464 kts | 9° |
| 2026-05-06 12:11 | 25.05207 | 114.64699 | 37060 ft | 465 kts | 10° |
| 2026-05-06 12:11 | 25.11464 | 114.66572 | 37056 ft | 465 kts | 10° |
| 2026-05-06 12:12 | 25.17707 | 114.68443 | 37048 ft | 465 kts | 10° |
| 2026-05-06 12:12 | 25.23962 | 114.70319 | 37033 ft | 465 kts | 10° |
| 2026-05-06 12:13 | 25.30236 | 114.72203 | 37030 ft | 466 kts | 10° |
| 2026-05-06 12:13 | 25.36470 | 114.74078 | 37024 ft | 465 kts | 10° |
| 2026-05-06 12:14 | 25.42711 | 114.75956 | 37025 ft | 465 kts | 10° |
| 2026-05-06 12:14 | 25.48945 | 114.77834 | 37018 ft | 465 kts | 10° |
| 2026-05-06 12:15 | 25.55220 | 114.79726 | 37015 ft | 465 kts | 10° |
| 2026-05-06 12:15 | 25.61452 | 114.81607 | 37012 ft | 466 kts | 10° |
| 2026-05-06 12:16 | 25.67697 | 114.83496 | 37018 ft | 465 kts | 10° |
| 2026-05-06 12:16 | 25.73911 | 114.85578 | 37030 ft | 469 kts | 15° |
| 2026-05-06 12:17 | 25.79861 | 114.88740 | 37037 ft | 476 kts | 25° |
| 2026-05-06 12:17 | 25.85264 | 114.93013 | 37039 ft | 484 kts | 36° |
| 2026-05-06 12:18 | 25.90085 | 114.98297 | 37038 ft | 488 kts | 42° |
| 2026-05-06 12:18 | 25.94704 | 115.03825 | 37035 ft | 489 kts | 43° |
| 2026-05-06 12:19 | 25.99324 | 115.09356 | 37024 ft | 488 kts | 42° |
| 2026-05-06 12:19 | 26.03968 | 115.14893 | 37011 ft | 488 kts | 42° |
| 2026-05-06 12:20 | 26.08599 | 115.20412 | 37008 ft | 488 kts | 42° |
| 2026-05-06 12:20 | 26.13238 | 115.25943 | 37008 ft | 488 kts | 42° |
| 2026-05-06 12:21 | 26.17895 | 115.31503 | 37009 ft | 489 kts | 42° |
| 2026-05-06 12:21 | 26.22538 | 115.37053 | 37016 ft | 489 kts | 42° |
| 2026-05-06 12:22 | 26.27139 | 115.42560 | 37026 ft | 489 kts | 42° |
| 2026-05-06 12:22 | 26.31780 | 115.48122 | 37037 ft | 489 kts | 42° |
| 2026-05-06 12:23 | 26.36422 | 115.53690 | 37045 ft | 489 kts | 42° |
| 2026-05-06 12:23 | 26.41045 | 115.59246 | 37040 ft | 489 kts | 42° |
| 2026-05-06 12:24 | 26.45650 | 115.64785 | 37036 ft | 489 kts | 42° |
| 2026-05-06 12:24 | 26.50256 | 115.70334 | 37027 ft | 489 kts | 43° |
| 2026-05-06 12:25 | 26.54877 | 115.75906 | 37034 ft | 489 kts | 43° |
| 2026-05-06 12:25 | 26.59491 | 115.81478 | 37037 ft | 489 kts | 43° |
| 2026-05-06 12:26 | 26.64119 | 115.87076 | 37038 ft | 489 kts | 43° |
| 2026-05-06 12:26 | 26.68714 | 115.92638 | 37039 ft | 489 kts | 43° |
| 2026-05-06 12:27 | 26.73324 | 115.98228 | 37043 ft | 490 kts | 43° |
| 2026-05-06 12:27 | 26.77954 | 116.03848 | 37043 ft | 490 kts | 43° |
| 2026-05-06 12:28 | 26.82561 | 116.09450 | 37051 ft | 490 kts | 43° |
| 2026-05-06 12:28 | 26.87156 | 116.15045 | 37052 ft | 489 kts | 43° |
| 2026-05-06 12:29 | 26.91740 | 116.20634 | 37054 ft | 490 kts | 43° |
| 2026-05-06 12:29 | 26.96365 | 116.26216 | 37056 ft | 489 kts | 42° |
| 2026-05-06 12:30 | 27.01010 | 116.31803 | 37061 ft | 488 kts | 42° |
| 2026-05-06 12:30 | 27.05634 | 116.37379 | 37061 ft | 489 kts | 42° |
| 2026-05-06 12:31 | 27.10250 | 116.42963 | 37056 ft | 489 kts | 42° |
| 2026-05-06 12:31 | 27.14856 | 116.48543 | 37050 ft | 488 kts | 42° |
| 2026-05-06 12:32 | 27.19471 | 116.54137 | 37037 ft | 488 kts | 42° |
| 2026-05-06 12:32 | 27.24115 | 116.59656 | 37040 ft | 488 kts | 40° |
| 2026-05-06 12:33 | 27.28864 | 116.65147 | 37041 ft | 488 kts | 41° |
| 2026-05-06 12:33 | 27.33585 | 116.70631 | 37042 ft | 489 kts | 41° |
| 2026-05-06 12:34 | 27.38295 | 116.76124 | 37037 ft | 489 kts | 41° |
| 2026-05-06 12:34 | 27.42993 | 116.81617 | 37040 ft | 489 kts | 41° |
| 2026-05-06 12:35 | 27.47707 | 116.87135 | 37042 ft | 489 kts | 41° |
| 2026-05-06 12:35 | 27.52415 | 116.92652 | 37057 ft | 488 kts | 41° |
| 2026-05-06 12:36 | 27.57123 | 116.98092 | 37065 ft | 488 kts | 40° |
| 2026-05-06 12:36 | 27.61858 | 117.03551 | 37070 ft | 488 kts | 40° |
| 2026-05-06 12:37 | 27.66613 | 117.09048 | 37063 ft | 488 kts | 41° |
| 2026-05-06 12:37 | 27.71353 | 117.14544 | 37055 ft | 488 kts | 41° |
| 2026-05-06 12:38 | 27.76088 | 117.20040 | 37059 ft | 488 kts | 40° |
| 2026-05-06 12:38 | 27.80805 | 117.25523 | 37077 ft | 488 kts | 41° |
| 2026-05-06 12:39 | 27.85517 | 117.31009 | 37084 ft | 487 kts | 41° |
| 2026-05-06 12:39 | 27.90239 | 117.36513 | 37075 ft | 488 kts | 41° |
| 2026-05-06 12:40 | 27.94967 | 117.42033 | 37068 ft | 488 kts | 41° |
| 2026-05-06 12:40 | 27.99674 | 117.47533 | 37053 ft | 487 kts | 41° |
| 2026-05-06 12:41 | 28.04383 | 117.53046 | 37058 ft | 487 kts | 41° |
| 2026-05-06 12:41 | 28.09089 | 117.58561 | 37063 ft | 488 kts | 41° |
| 2026-05-06 12:42 | 28.13808 | 117.64100 | 37063 ft | 488 kts | 41° |
| 2026-05-06 12:42 | 28.18527 | 117.69646 | 37058 ft | 488 kts | 41° |
| 2026-05-06 12:43 | 28.23247 | 117.75199 | 37055 ft | 488 kts | 41° |
| 2026-05-06 12:43 | 28.27940 | 117.80731 | 37056 ft | 488 kts | 41° |
| 2026-05-06 12:44 | 28.32653 | 117.86296 | 37052 ft | 481 kts | 42° |
| 2026-05-06 12:44 | 28.34927 | 117.88992 | 37059 ft | 468 kts | 41° |
| 2026-05-06 12:44 | 28.37166 | 117.91644 | 37058 ft | 456 kts | 41° |
| 2026-05-06 12:45 | 28.41516 | 117.96787 | 37057 ft | 453 kts | 41° |
| 2026-05-06 12:46 | 28.48007 | 118.04712 | 37054 ft | 454 kts | 43° |
| 2026-05-06 12:46 | 28.52264 | 118.09960 | 37053 ft | 454 kts | 43° |
| 2026-05-06 12:47 | 28.56528 | 118.15221 | 37049 ft | 454 kts | 43° |
| 2026-05-06 12:47 | 28.60833 | 118.20534 | 37062 ft | 454 kts | 43° |
| 2026-05-06 12:48 | 28.65111 | 118.25819 | 37062 ft | 453 kts | 43° |
| 2026-05-06 12:48 | 28.69389 | 118.31109 | 37055 ft | 454 kts | 43° |
| 2026-05-06 12:49 | 28.73687 | 118.36427 | 37048 ft | 464 kts | 43° |
| 2026-05-06 12:49 | 28.78120 | 118.41917 | 37049 ft | 476 kts | 43° |
| 2026-05-06 12:50 | 28.82668 | 118.47562 | 37052 ft | 485 kts | 43° |
| 2026-05-06 12:50 | 28.87215 | 118.53220 | 37053 ft | 488 kts | 43° |
| 2026-05-06 12:51 | 28.91809 | 118.58946 | 37055 ft | 487 kts | 43° |
| 2026-05-06 12:51 | 28.96361 | 118.64624 | 37044 ft | 486 kts | 43° |
| 2026-05-06 12:52 | 29.00935 | 118.70336 | 37037 ft | 486 kts | 43° |
| 2026-05-06 12:52 | 29.05596 | 118.75972 | 37032 ft | 482 kts | 35° |
| 2026-05-06 12:52 | 29.08296 | 118.78149 | 37044 ft | 474 kts | 23° |
| 2026-05-06 12:53 | 29.11258 | 118.79627 | 37056 ft | 466 kts | 12° |
| 2026-05-06 12:53 | 29.14443 | 118.80380 | 37060 ft | 458 kts | 359° |
| 2026-05-06 12:53 | 29.17568 | 118.80352 | 37071 ft | 449 kts | 348° |
| 2026-05-06 12:53 | 29.20603 | 118.79565 | 37081 ft | 441 kts | 336° |
| 2026-05-06 12:54 | 29.23372 | 118.78117 | 37095 ft | 437 kts | 327° |
| 2026-05-06 12:54 | 29.28602 | 118.74571 | 37110 ft | 436 kts | 324° |
| 2026-05-06 12:55 | 29.33759 | 118.70940 | 36754 ft | 431 kts | 324° |
| 2026-05-06 12:55 | 29.36303 | 118.69152 | 36054 ft | 433 kts | 325° |
| 2026-05-06 12:55 | 29.39030 | 118.67546 | 35112 ft | 444 kts | 335° |
| 2026-05-06 12:55 | 29.42051 | 118.66644 | 34289 ft | 454 kts | 348° |
| 2026-05-06 12:56 | 29.45224 | 118.66528 | 33779 ft | 458 kts | 0° |
| 2026-05-06 12:56 | 29.48342 | 118.67191 | 33344 ft | 461 kts | 12° |
| 2026-05-06 12:56 | 29.51318 | 118.68608 | 32866 ft | 466 kts | 25° |
| 2026-05-06 12:56 | 29.54021 | 118.70747 | 32355 ft | 471 kts | 37° |
| 2026-05-06 12:57 | 29.56279 | 118.73483 | 31837 ft | 475 kts | 50° |
| 2026-05-06 12:57 | 29.57994 | 118.76687 | 31327 ft | 479 kts | 63° |
| 2026-05-06 12:57 | 29.59112 | 118.80296 | 30814 ft | 480 kts | 76° |
| 2026-05-06 12:57 | 29.59650 | 118.84058 | 30342 ft | 478 kts | 83° |
| 2026-05-06 12:58 | 29.60002 | 118.87888 | 29900 ft | 475 kts | 85° |
| 2026-05-06 12:58 | 29.60162 | 118.91651 | 29438 ft | 473 kts | 90° |
| 2026-05-06 12:58 | 29.60171 | 118.95454 | 28976 ft | 471 kts | 91° |
| 2026-05-06 12:58 | 29.60150 | 118.99187 | 28550 ft | 468 kts | 91° |
| 2026-05-06 12:59 | 29.60132 | 119.02954 | 28128 ft | 466 kts | 90° |
| 2026-05-06 12:59 | 29.60129 | 119.06632 | 27725 ft | 462 kts | 90° |
| 2026-05-06 12:59 | 29.60136 | 119.10329 | 27329 ft | 459 kts | 90° |
| 2026-05-06 12:59 | 29.60150 | 119.13972 | 26916 ft | 456 kts | 90° |
| 2026-05-06 13:00 | 29.60165 | 119.17583 | 26519 ft | 454 kts | 90° |
| 2026-05-06 13:00 | 29.60181 | 119.21184 | 26131 ft | 450 kts | 90° |
| 2026-05-06 13:00 | 29.60197 | 119.24754 | 25730 ft | 448 kts | 90° |
| 2026-05-06 13:00 | 29.60214 | 119.28322 | 25343 ft | 445 kts | 90° |
| 2026-05-06 13:01 | 29.60229 | 119.31810 | 24978 ft | 441 kts | 90° |
| 2026-05-06 13:01 | 29.60242 | 119.35310 | 24645 ft | 437 kts | 90° |
| 2026-05-06 13:01 | 29.60255 | 119.38804 | 24570 ft | 435 kts | 90° |
| 2026-05-06 13:01 | 29.60267 | 119.42289 | 24566 ft | 438 kts | 90° |
| 2026-05-06 13:02 | 29.60278 | 119.45782 | 24565 ft | 439 kts | 90° |
| 2026-05-06 13:02 | 29.60287 | 119.49282 | 24563 ft | 439 kts | 90° |
| 2026-05-06 13:02 | 29.60297 | 119.52767 | 24562 ft | 438 kts | 90° |
| 2026-05-06 13:02 | 29.60306 | 119.56248 | 24564 ft | 438 kts | 90° |
| 2026-05-06 13:03 | 29.60314 | 119.59750 | 24568 ft | 438 kts | 90° |
| 2026-05-06 13:03 | 29.60320 | 119.63277 | 24570 ft | 438 kts | 90° |
| 2026-05-06 13:03 | 29.60326 | 119.66793 | 24572 ft | 438 kts | 90° |
| 2026-05-06 13:03 | 29.60332 | 119.70340 | 24576 ft | 438 kts | 90° |
| 2026-05-06 13:04 | 29.60336 | 119.73834 | 24582 ft | 438 kts | 90° |
| 2026-05-06 13:04 | 29.60339 | 119.77321 | 24585 ft | 437 kts | 90° |
| 2026-05-06 13:04 | 29.60340 | 119.80827 | 24582 ft | 438 kts | 91° |
| 2026-05-06 13:04 | 29.60341 | 119.84326 | 24577 ft | 438 kts | 90° |
| 2026-05-06 13:05 | 29.60340 | 119.87781 | 24571 ft | 438 kts | 90° |
| 2026-05-06 13:05 | 29.60340 | 119.91283 | 24565 ft | 438 kts | 90° |
| 2026-05-06 13:05 | 29.60339 | 119.94781 | 24561 ft | 439 kts | 90° |
| 2026-05-06 13:05 | 29.60336 | 119.98273 | 24554 ft | 438 kts | 90° |
| 2026-05-06 13:06 | 29.60333 | 120.01833 | 24549 ft | 438 kts | 90° |
| 2026-05-06 13:06 | 29.60329 | 120.05331 | 24548 ft | 439 kts | 90° |
| 2026-05-06 13:06 | 29.60324 | 120.08838 | 24548 ft | 438 kts | 90° |
| 2026-05-06 13:06 | 29.60318 | 120.12331 | 24551 ft | 439 kts | 90° |
| 2026-05-06 13:07 | 29.60311 | 120.15836 | 24552 ft | 439 kts | 90° |
| 2026-05-06 13:07 | 29.60304 | 120.19321 | 24553 ft | 439 kts | 90° |
| 2026-05-06 13:07 | 29.60293 | 120.22832 | 24554 ft | 439 kts | 90° |
| 2026-05-06 13:07 | 29.60284 | 120.26358 | 24560 ft | 439 kts | 90° |
| 2026-05-06 13:08 | 29.60272 | 120.29908 | 24563 ft | 439 kts | 90° |
| 2026-05-06 13:08 | 29.60261 | 120.33401 | 24566 ft | 438 kts | 90° |
| 2026-05-06 13:08 | 29.60248 | 120.36887 | 24571 ft | 438 kts | 90° |
| 2026-05-06 13:08 | 29.60234 | 120.40413 | 24577 ft | 439 kts | 90° |
| 2026-05-06 13:09 | 29.60219 | 120.43927 | 24440 ft | 439 kts | 90° |
| 2026-05-06 13:09 | 29.60204 | 120.47457 | 24183 ft | 435 kts | 90° |
| 2026-05-06 13:09 | 29.60188 | 120.50920 | 23930 ft | 433 kts | 90° |
| 2026-05-06 13:09 | 29.60172 | 120.54357 | 23682 ft | 431 kts | 90° |
| 2026-05-06 13:10 | 29.60156 | 120.57836 | 23433 ft | 429 kts | 90° |
| 2026-05-06 13:10 | 29.60137 | 120.61246 | 23188 ft | 427 kts | 90° |
| 2026-05-06 13:10 | 29.60117 | 120.64617 | 22946 ft | 426 kts | 90° |
| 2026-05-06 13:10 | 29.60097 | 120.68025 | 22699 ft | 424 kts | 91° |
| 2026-05-06 13:11 | 29.60075 | 120.71418 | 22460 ft | 422 kts | 91° |
| 2026-05-06 13:11 | 29.60054 | 120.74769 | 22227 ft | 420 kts | 91° |
| 2026-05-06 13:11 | 29.60044 | 120.78121 | 21992 ft | 420 kts | 88° |
| 2026-05-06 13:11 | 29.60460 | 120.81382 | 21749 ft | 417 kts | 73° |
| 2026-05-06 13:12 | 29.61539 | 120.84463 | 21512 ft | 413 kts | 59° |
| 2026-05-06 13:12 | 29.63057 | 120.87231 | 21283 ft | 410 kts | 54° |
| 2026-05-06 13:12 | 29.64690 | 120.89989 | 21040 ft | 408 kts | 53° |
| 2026-05-06 13:12 | 29.66293 | 120.92691 | 20802 ft | 406 kts | 53° |
| 2026-05-06 13:13 | 29.67880 | 120.95394 | 20563 ft | 404 kts | 54° |
| 2026-05-06 13:13 | 29.69457 | 120.98109 | 20319 ft | 403 kts | 54° |
| 2026-05-06 13:13 | 29.71004 | 121.00791 | 20084 ft | 402 kts | 54° |
| 2026-05-06 13:13 | 29.72545 | 121.03472 | 19845 ft | 399 kts | 54° |
| 2026-05-06 13:14 | 29.74067 | 121.06130 | 19603 ft | 398 kts | 54° |
| 2026-05-06 13:14 | 29.75583 | 121.08779 | 19365 ft | 397 kts | 54° |
| 2026-05-06 13:14 | 29.77101 | 121.11435 | 19130 ft | 395 kts | 54° |
| 2026-05-06 13:14 | 29.78601 | 121.14061 | 18906 ft | 394 kts | 54° |
| 2026-05-06 13:15 | 29.80103 | 121.16692 | 18674 ft | 392 kts | 54° |
| 2026-05-06 13:15 | 29.81609 | 121.19332 | 18453 ft | 390 kts | 54° |
| 2026-05-06 13:15 | 29.83098 | 121.21945 | 18218 ft | 388 kts | 54° |
| 2026-05-06 13:15 | 29.84558 | 121.24511 | 17996 ft | 387 kts | 54° |
| 2026-05-06 13:16 | 29.86047 | 121.27126 | 17764 ft | 385 kts | 54° |
| 2026-05-06 13:16 | 29.87500 | 121.29679 | 17536 ft | 384 kts | 54° |
| 2026-05-06 13:16 | 29.89056 | 121.32167 | 17302 ft | 380 kts | 46° |
| 2026-05-06 13:16 | 29.90985 | 121.34211 | 17073 ft | 375 kts | 33° |
| 2026-05-06 13:17 | 29.93200 | 121.35774 | 16844 ft | 371 kts | 25° |
| 2026-05-06 13:17 | 29.95469 | 121.37175 | 16629 ft | 369 kts | 25° |
| 2026-05-06 13:17 | 29.97753 | 121.38563 | 16400 ft | 368 kts | 25° |
| 2026-05-06 13:17 | 29.99998 | 121.39938 | 16171 ft | 366 kts | 25° |
| 2026-05-06 13:18 | 30.02231 | 121.41316 | 15948 ft | 364 kts | 25° |
| 2026-05-06 13:18 | 30.04477 | 121.42712 | 15712 ft | 362 kts | 25° |
| 2026-05-06 13:18 | 30.06677 | 121.44087 | 15484 ft | 361 kts | 26° |
| 2026-05-06 13:18 | 30.08900 | 121.45478 | 15255 ft | 360 kts | 26° |
| 2026-05-06 13:19 | 30.11089 | 121.46850 | 15028 ft | 358 kts | 26° |
| 2026-05-06 13:19 | 30.13297 | 121.48235 | 14792 ft | 357 kts | 26° |
| 2026-05-06 13:19 | 30.15493 | 121.49614 | 14559 ft | 355 kts | 26° |
| 2026-05-06 13:19 | 30.17646 | 121.50967 | 14325 ft | 354 kts | 26° |
| 2026-05-06 13:20 | 30.19809 | 121.52329 | 14092 ft | 352 kts | 26° |
| 2026-05-06 13:20 | 30.21952 | 121.53678 | 13859 ft | 351 kts | 26° |
| 2026-05-06 13:20 | 30.24091 | 121.55022 | 13635 ft | 349 kts | 26° |
| 2026-05-06 13:20 | 30.26219 | 121.56366 | 13426 ft | 348 kts | 27° |
| 2026-05-06 13:21 | 30.28339 | 121.57734 | 13232 ft | 347 kts | 27° |
| 2026-05-06 13:21 | 30.30446 | 121.59103 | 13057 ft | 346 kts | 27° |
| 2026-05-06 13:21 | 30.32548 | 121.60468 | 12885 ft | 345 kts | 27° |
| 2026-05-06 13:21 | 30.34649 | 121.61830 | 12640 ft | 344 kts | 27° |
| 2026-05-06 13:22 | 30.36718 | 121.63171 | 12351 ft | 343 kts | 28° |
| 2026-05-06 13:22 | 30.38776 | 121.64574 | 12045 ft | 342 kts | 29° |
| 2026-05-06 13:22 | 30.40819 | 121.66015 | 11725 ft | 340 kts | 30° |
| 2026-05-06 13:22 | 30.42837 | 121.67446 | 11410 ft | 338 kts | 30° |
| 2026-05-06 13:23 | 30.44827 | 121.68854 | 11099 ft | 336 kts | 30° |
| 2026-05-06 13:23 | 30.46820 | 121.70261 | 10783 ft | 334 kts | 30° |
| 2026-05-06 13:23 | 30.48806 | 121.71661 | 10513 ft | 330 kts | 30° |
| 2026-05-06 13:23 | 30.50753 | 121.73033 | 10293 ft | 325 kts | 30° |
| 2026-05-06 13:24 | 30.52678 | 121.74389 | 10107 ft | 319 kts | 30° |
| 2026-05-06 13:24 | 30.54547 | 121.75707 | 10034 ft | 309 kts | 30° |
| 2026-05-06 13:24 | 30.56367 | 121.76917 | 9989 ft | 298 kts | 25° |
| 2026-05-06 13:24 | 30.58298 | 121.77808 | 9774 ft | 293 kts | 15° |
| 2026-05-06 13:25 | 30.60253 | 121.78394 | 9793 ft | 291 kts | 12° |
| 2026-05-06 13:25 | 30.62250 | 121.78928 | 9815 ft | 292 kts | 12° |
| 2026-05-06 13:25 | 30.64225 | 121.79450 | 9875 ft | 285 kts | 12° |
| 2026-05-06 13:25 | 30.66128 | 121.79958 | 9852 ft | 275 kts | 12° |
| 2026-05-06 13:26 | 30.67964 | 121.80450 | 9836 ft | 264 kts | 12° |
| 2026-05-06 13:26 | 30.69709 | 121.80923 | 9828 ft | 252 kts | 12° |
| 2026-05-06 13:26 | 30.71375 | 121.81376 | 9822 ft | 240 kts | 12° |
| 2026-05-06 13:26 | 30.72982 | 121.81813 | 9816 ft | 228 kts | 12° |
| 2026-05-06 13:27 | 30.74483 | 121.82221 | 9814 ft | 215 kts | 11° |
| 2026-05-06 13:27 | 30.75899 | 121.82608 | 9809 ft | 202 kts | 11° |
| 2026-05-06 13:27 | 30.77252 | 121.82976 | 9822 ft | 198 kts | 11° |
| 2026-05-06 13:27 | 30.78589 | 121.83339 | 9813 ft | 196 kts | 11° |
| 2026-05-06 13:28 | 30.79918 | 121.83700 | 9620 ft | 196 kts | 11° |
| 2026-05-06 13:28 | 30.81264 | 121.84066 | 9366 ft | 197 kts | 12° |
| 2026-05-06 13:28 | 30.82586 | 121.84426 | 9138 ft | 197 kts | 12° |
| 2026-05-06 13:28 | 30.83922 | 121.84789 | 8915 ft | 197 kts | 12° |
| 2026-05-06 13:29 | 30.85270 | 121.85157 | 8691 ft | 196 kts | 12° |
| 2026-05-06 13:29 | 30.86594 | 121.85519 | 8472 ft | 196 kts | 12° |
| 2026-05-06 13:29 | 30.87908 | 121.85879 | 8250 ft | 196 kts | 12° |
| 2026-05-06 13:29 | 30.89234 | 121.86240 | 8029 ft | 195 kts | 12° |
| 2026-05-06 13:30 | 30.90555 | 121.86601 | 7887 ft | 192 kts | 12° |
| 2026-05-06 13:30 | 30.91873 | 121.86975 | 7890 ft | 196 kts | 15° |
| 2026-05-06 13:30 | 30.93169 | 121.87480 | 7883 ft | 196 kts | 21° |
| 2026-05-06 13:30 | 30.94399 | 121.88146 | 7891 ft | 191 kts | 28° |
| 2026-05-06 13:31 | 30.95524 | 121.88900 | 7895 ft | 185 kts | 30° |
| 2026-05-06 13:31 | 30.96618 | 121.89655 | 7871 ft | 174 kts | 30° |
| 2026-05-06 13:31 | 30.97633 | 121.90356 | 7870 ft | 170 kts | 30° |
| 2026-05-06 13:31 | 30.98657 | 121.91061 | 7879 ft | 170 kts | 30° |
| 2026-05-06 13:32 | 30.99689 | 121.91770 | 7775 ft | 171 kts | 30° |
| 2026-05-06 13:32 | 31.00707 | 121.92468 | 7597 ft | 170 kts | 30° |
| 2026-05-06 13:32 | 31.01733 | 121.93172 | 7432 ft | 170 kts | 30° |
| 2026-05-06 13:32 | 31.02747 | 121.93866 | 7274 ft | 169 kts | 30° |
| 2026-05-06 13:33 | 31.03762 | 121.94562 | 7117 ft | 169 kts | 30° |
| 2026-05-06 13:33 | 31.04791 | 121.95267 | 6954 ft | 169 kts | 30° |
| 2026-05-06 13:33 | 31.05794 | 121.95954 | 6905 ft | 169 kts | 30° |
| 2026-05-06 13:33 | 31.06824 | 121.96660 | 6911 ft | 170 kts | 29° |
| 2026-05-06 13:34 | 31.07916 | 121.97142 | 6881 ft | 169 kts | 8° |
| 2026-05-06 13:34 | 31.09072 | 121.97150 | 6771 ft | 164 kts | 348° |
| 2026-05-06 13:34 | 31.10172 | 121.96804 | 6477 ft | 164 kts | 341° |
| 2026-05-06 13:34 | 31.11272 | 121.96376 | 6156 ft | 166 kts | 340° |
| 2026-05-06 13:35 | 31.12370 | 121.95940 | 5866 ft | 166 kts | 340° |
| 2026-05-06 13:35 | 31.13455 | 121.95518 | 5596 ft | 164 kts | 341° |
| 2026-05-06 13:35 | 31.14541 | 121.95100 | 5306 ft | 165 kts | 341° |
| 2026-05-06 13:35 | 31.15636 | 121.94683 | 5017 ft | 165 kts | 341° |
| 2026-05-06 13:36 | 31.16736 | 121.94267 | 4728 ft | 165 kts | 341° |
| 2026-05-06 13:36 | 31.17829 | 121.93854 | 4447 ft | 164 kts | 341° |
| 2026-05-06 13:36 | 31.18914 | 121.93446 | 4172 ft | 164 kts | 341° |
| 2026-05-06 13:36 | 31.19986 | 121.93042 | 3926 ft | 161 kts | 341° |
| 2026-05-06 13:37 | 31.21067 | 121.92635 | 3898 ft | 164 kts | 341° |
| 2026-05-06 13:37 | 31.22169 | 121.92219 | 3870 ft | 166 kts | 341° |
| 2026-05-06 13:37 | 31.23274 | 121.91803 | 3747 ft | 165 kts | 341° |
| 2026-05-06 13:37 | 31.24373 | 121.91389 | 3624 ft | 165 kts | 341° |
| 2026-05-06 13:38 | 31.25470 | 121.90976 | 3501 ft | 166 kts | 341° |
| 2026-05-06 13:38 | 31.26577 | 121.90560 | 3378 ft | 164 kts | 341° |
| 2026-05-06 13:38 | 31.27669 | 121.90150 | 3255 ft | 165 kts | 340° |
| 2026-05-06 13:38 | 31.28756 | 121.89739 | 3135 ft | 165 kts | 340° |
| 2026-05-06 13:39 | 31.29857 | 121.89323 | 3010 ft | 165 kts | 340° |
| 2026-05-06 13:39 | 31.30954 | 121.88909 | 2890 ft | 166 kts | 341° |
| 2026-05-06 13:39 | 31.32054 | 121.88493 | 2766 ft | 166 kts | 341° |
| 2026-05-06 13:39 | 31.33149 | 121.88079 | 2644 ft | 166 kts | 341° |
| 2026-05-06 13:40 | 31.34265 | 121.87658 | 2519 ft | 167 kts | 341° |
| 2026-05-06 13:40 | 31.35367 | 121.87242 | 2399 ft | 167 kts | 341° |
| 2026-05-06 13:40 | 31.36485 | 121.86820 | 2275 ft | 167 kts | 341° |
| 2026-05-06 13:40 | 31.37608 | 121.86396 | 2151 ft | 168 kts | 341° |
| 2026-05-06 13:41 | 31.38723 | 121.85975 | 2030 ft | 168 kts | 342° |
| 2026-05-06 13:41 | 31.39834 | 121.85555 | 1986 ft | 168 kts | 342° |
| 2026-05-06 13:41 | 31.40964 | 121.85129 | 1982 ft | 169 kts | 342° |
| 2026-05-06 13:41 | 31.42085 | 121.84705 | 1981 ft | 169 kts | 342° |
| 2026-05-06 13:42 | 31.43212 | 121.84265 | 1976 ft | 168 kts | 335° |
| 2026-05-06 13:42 | 31.44154 | 121.83436 | 1973 ft | 165 kts | 303° |
| 2026-05-06 13:42 | 31.44630 | 121.82253 | 1979 ft | 159 kts | 275° |
| 2026-05-06 13:42 | 31.44617 | 121.80986 | 1984 ft | 153 kts | 253° |
| 2026-05-06 13:43 | 31.44376 | 121.79771 | 1983 ft | 152 kts | 250° |
| 2026-05-06 13:43 | 31.44110 | 121.78554 | 1979 ft | 152 kts | 250° |
| 2026-05-06 13:43 | 31.43856 | 121.77353 | 1978 ft | 153 kts | 250° |
| 2026-05-06 13:43 | 31.43613 | 121.76135 | 1977 ft | 153 kts | 251° |
| 2026-05-06 13:44 | 31.43376 | 121.74920 | 1974 ft | 153 kts | 251° |
| 2026-05-06 13:44 | 31.43108 | 121.73718 | 1968 ft | 150 kts | 238° |
| 2026-05-06 13:44 | 31.42480 | 121.72774 | 1965 ft | 141 kts | 205° |
| 2026-05-06 13:44 | 31.41561 | 121.72496 | 1978 ft | 136 kts | 180° |
| 2026-05-06 13:45 | 31.40588 | 121.72561 | 1976 ft | 136 kts | 171° |
| 2026-05-06 13:45 | 31.38731 | 121.73075 | 1974 ft | 136 kts | 163° |
| 2026-05-06 13:45 | 31.37822 | 121.73398 | 1974 ft | 136 kts | 163° |
| 2026-05-06 13:46 | 31.36908 | 121.73731 | 1976 ft | 136 kts | 162° |
| 2026-05-06 13:46 | 31.36002 | 121.74066 | 1971 ft | 136 kts | 162° |
| 2026-05-06 13:46 | 31.35088 | 121.74407 | 1975 ft | 136 kts | 162° |
| 2026-05-06 13:46 | 31.34197 | 121.74741 | 1974 ft | 136 kts | 162° |
| 2026-05-06 13:47 | 31.33275 | 121.75088 | 1975 ft | 136 kts | 161° |
| 2026-05-06 13:47 | 31.32377 | 121.75429 | 1975 ft | 136 kts | 161° |
| 2026-05-06 13:47 | 31.31468 | 121.75773 | 1975 ft | 136 kts | 162° |
| 2026-05-06 13:47 | 31.30570 | 121.76114 | 1978 ft | 135 kts | 161° |
| 2026-05-06 13:48 | 31.29668 | 121.76456 | 1980 ft | 136 kts | 161° |
| 2026-05-06 13:48 | 31.28748 | 121.76804 | 1980 ft | 135 kts | 162° |
| 2026-05-06 13:48 | 31.27821 | 121.77155 | 1980 ft | 135 kts | 162° |
| 2026-05-06 13:48 | 31.26930 | 121.77492 | 1985 ft | 134 kts | 162° |
| 2026-05-06 13:49 | 31.26023 | 121.77836 | 1983 ft | 134 kts | 162° |
| 2026-05-06 13:49 | 31.25119 | 121.78178 | 1873 ft | 135 kts | 162° |
| 2026-05-06 13:49 | 31.24228 | 121.78514 | 1692 ft | 133 kts | 162° |
| 2026-05-06 13:49 | 31.23348 | 121.78846 | 1520 ft | 133 kts | 162° |
| 2026-05-06 13:50 | 31.22438 | 121.79189 | 1343 ft | 134 kts | 162° |
| 2026-05-06 13:50 | 31.21538 | 121.79530 | 1172 ft | 136 kts | 161° |
| 2026-05-06 13:50 | 31.20640 | 121.79869 | 985 ft | 135 kts | 161° |
| 2026-05-06 13:50 | 31.19727 | 121.80213 | 803 ft | 135 kts | 161° |
| 2026-05-06 13:51 | 31.18814 | 121.80558 | 620 ft | 136 kts | 161° |
| 2026-05-06 13:51 | 31.17918 | 121.80897 | 442 ft | 136 kts | 160° |
| 2026-05-06 13:51 | 31.17011 | 121.81239 | 262 ft | 137 kts | 160° |
| 2026-05-06 13:51 | 31.16101 | 121.81581 | 88 ft | 137 kts | 160° |
| 2026-05-06 13:52 | 31.15222 | 121.81911 | 27 ft | 117 kts | 160° |
| 2026-05-06 13:52 | 31.14623 | 121.82142 | 27 ft | 64 kts | 164° |
| 2026-05-06 13:52 | 31.14334 | 121.82166 | 30 ft | 29 kts | 189° |
| 2026-05-06 13:52 | 31.14138 | 121.82139 | 30 ft | 27 kts | 175° |
| 2026-05-06 13:53 | 31.13953 | 121.82188 | 30 ft | 25 kts | 166° |
| 2026-05-06 13:53 | 31.13790 | 121.82247 | 30 ft | 23 kts | 160° |
| 2026-05-06 13:53 | 31.13771 | 121.82256 | 30 ft | 0 kts | 160° |
| 2026-05-06 14:01 | 31.13757 | 121.82261 | 30 ft | 9 kts | 161° |
| 2026-05-06 14:01 | 31.13692 | 121.82263 | 30 ft | 9 kts | 207° |
| 2026-05-06 14:01 | 31.13648 | 121.82207 | 30 ft | 10 kts | 245° |
| 2026-05-06 14:02 | 31.13624 | 121.82123 | 30 ft | 11 kts | 254° |
| 2026-05-06 14:02 | 31.13602 | 121.82029 | 30 ft | 12 kts | 254° |
| 2026-05-06 14:02 | 31.13579 | 121.81934 | 30 ft | 9 kts | 254° |
| 2026-05-06 14:02 | 31.13557 | 121.81858 | 30 ft | 10 kts | 251° |
| 2026-05-06 14:03 | 31.13531 | 121.81769 | 29 ft | 12 kts | 251° |
| 2026-05-06 14:03 | 31.13500 | 121.81660 | 27 ft | 15 kts | 252° |
| 2026-05-06 14:03 | 31.13468 | 121.81540 | 27 ft | 15 kts | 252° |
| 2026-05-06 14:03 | 31.13454 | 121.81500 | 27 ft | 4 kts | 243° |
| 2026-05-06 14:04 | 31.13445 | 121.81476 | 27 ft | 0 kts | 258° |